createdAt,value
2018-07-17T00:01:58.004Z,57.20
2018-07-17T00:04:26.426Z,57.50
2018-07-17T00:06:54.934Z,57.70
2018-07-17T00:09:23.348Z,58.40
2018-07-17T00:11:51.975Z,58.20
2018-07-17T00:14:20.473Z,58.30
2018-07-17T00:16:48.982Z,58.20
2018-07-17T00:19:17.429Z,57.90
2018-07-17T00:21:45.959Z,58.00
2018-07-17T00:24:14.378Z,58.10
2018-07-17T00:26:42.772Z,58.40
2018-07-17T00:29:11.277Z,58.60
2018-07-17T00:31:39.698Z,58.60
2018-07-17T00:36:36.619Z,59.20
2018-07-17T00:39:07.923Z,58.90
2018-07-17T00:44:04.557Z,58.80
2018-07-17T00:46:33.012Z,58.40
2018-07-17T00:49:01.481Z,58.60
2018-07-17T00:51:29.896Z,58.60
2018-07-17T00:53:59.552Z,58.80
2018-07-17T00:56:28.988Z,59.20
2018-07-17T00:58:57.415Z,59.30
2018-07-17T01:01:31.260Z,59.10
2018-07-17T01:04:04.998Z,59.30
2018-07-17T01:06:38.770Z,59.80
2018-07-17T01:09:13.319Z,60.40
2018-07-17T01:11:47.132Z,60.80
2018-07-17T01:16:50.797Z,62.00
2018-07-17T01:19:19.243Z,62.60
2018-07-17T01:21:47.953Z,63.00
2018-07-17T01:24:17.057Z,63.60
2018-07-17T01:26:46.531Z,64.00
2018-07-17T01:29:15.288Z,64.30
2018-07-17T01:31:43.724Z,64.60
2018-07-17T01:34:12.190Z,65.80
2018-07-17T01:36:40.600Z,65.50
2018-07-17T01:39:09.690Z,66.00
2018-07-17T01:41:38.129Z,66.40
2018-07-17T01:44:06.769Z,66.40
2018-07-17T01:46:35.228Z,66.70
2018-07-17T01:49:03.666Z,66.40
2018-07-17T01:51:32.166Z,66.50
2018-07-17T01:54:00.580Z,67.30
2018-07-17T01:56:29.032Z,68.00
2018-07-17T01:58:57.618Z,67.70
2018-07-17T02:01:26.067Z,67.70
2018-07-17T02:03:54.573Z,68.40
2018-07-17T02:06:23.108Z,68.10
2018-07-17T02:08:51.748Z,68.60
2018-07-17T02:11:20.447Z,68.10
2018-07-17T02:13:48.887Z,68.00
2018-07-17T02:16:17.320Z,68.10
2018-07-17T02:21:14.148Z,68.30
2018-07-17T02:23:42.805Z,68.40
2018-07-17T02:26:11.629Z,67.90
2018-07-17T02:28:40.196Z,67.40
2018-07-17T02:31:09.611Z,67.50
2018-07-17T02:33:38.252Z,67.20
2018-07-17T02:36:06.676Z,67.10
2018-07-17T02:38:35.093Z,67.10
2018-07-17T02:41:03.642Z,66.80
2018-07-17T02:43:32.100Z,67.10
2018-07-17T02:46:00.908Z,66.60
2018-07-17T02:48:29.431Z,66.40
2018-07-17T02:50:57.880Z,66.10
2018-07-17T02:53:26.343Z,66.60
2018-07-17T02:55:54.764Z,66.90
2018-07-17T02:58:23.414Z,66.20
2018-07-17T03:03:20.743Z,66.30
2018-07-17T03:05:49.871Z,66.40
2018-07-17T03:08:18.473Z,66.20
2018-07-17T03:13:15.826Z,66.50
2018-07-17T03:15:44.744Z,66.50
2018-07-17T03:18:13.209Z,66.00
2018-07-17T03:20:41.627Z,65.90
2018-07-17T03:23:10.088Z,65.70
2018-07-17T03:25:38.547Z,65.50
2018-07-17T03:28:07.413Z,65.10
2018-07-17T03:30:35.989Z,64.70
2018-07-17T03:33:04.500Z,64.60
2018-07-17T03:35:32.969Z,64.30
2018-07-17T03:40:29.728Z,64.50
2018-07-17T03:42:58.288Z,64.20
2018-07-17T03:45:26.709Z,64.10
2018-07-17T03:47:55.436Z,63.90
2018-07-17T03:50:23.958Z,63.90
2018-07-17T03:52:52.412Z,64.10
2018-07-17T03:55:20.830Z,64.00
2018-07-17T03:57:49.282Z,64.60
2018-07-17T04:00:17.702Z,64.90
2018-07-17T04:02:46.251Z,65.30
2018-07-17T04:05:14.863Z,65.50
2018-07-17T04:07:43.457Z,65.30
2018-07-17T04:10:11.946Z,65.60
2018-07-17T04:12:40.631Z,65.90
2018-07-17T04:15:09.158Z,65.60
2018-07-17T04:17:37.744Z,65.00
2018-07-17T04:20:06.411Z,64.20
2018-07-17T04:22:34.845Z,63.20
2018-07-17T04:25:03.378Z,61.80
2018-07-17T04:30:00.151Z,59.20
2018-07-17T04:32:28.797Z,58.90
2018-07-17T04:34:57.230Z,58.60
2018-07-17T04:37:25.845Z,58.30
2018-07-17T04:39:54.472Z,58.00
2018-07-17T04:42:22.983Z,57.40
2018-07-17T04:44:51.452Z,56.80
2018-07-17T04:47:20.252Z,56.10
2018-07-17T04:49:48.811Z,55.20
2018-07-17T04:52:17.924Z,54.30
2018-07-17T04:54:46.751Z,54.50
2018-07-17T04:57:16.071Z,54.90
2018-07-17T04:59:44.621Z,55.80
2018-07-17T05:02:14.570Z,56.50
2018-07-17T05:04:43.081Z,57.70
2018-07-17T05:07:11.529Z,56.60
2018-07-17T05:12:09.032Z,54.90
2018-07-17T05:14:37.567Z,52.30
2018-07-17T05:17:06.494Z,50.10
2018-07-17T05:19:34.984Z,48.40
2018-07-17T05:22:03.834Z,46.20
2018-07-17T05:24:32.502Z,45.00
2018-07-17T05:27:00.938Z,43.30
2018-07-17T05:29:29.351Z,42.20
2018-07-17T05:31:57.944Z,41.00
2018-07-17T05:34:26.412Z,40.30
2018-07-17T05:36:54.949Z,39.40
2018-07-17T05:39:23.424Z,38.70
2018-07-17T05:41:52.157Z,37.90
2018-07-17T05:44:21.145Z,37.30
2018-07-17T05:46:49.630Z,36.60
2018-07-17T05:49:18.060Z,35.90
2018-07-17T05:51:46.835Z,35.20
2018-07-17T05:54:15.435Z,34.90
2018-07-17T05:56:44.052Z,34.40
2018-07-17T05:59:12.874Z,34.00
2018-07-17T06:01:41.623Z,33.50
2018-07-17T06:04:10.652Z,33.60
2018-07-17T06:06:39.634Z,33.10
2018-07-17T06:09:10.042Z,32.50
2018-07-17T06:11:39.557Z,32.10
2018-07-17T06:14:08.381Z,31.50
2018-07-17T06:16:37.196Z,31.60
2018-07-17T06:19:06.282Z,31.50
2018-07-17T06:21:34.770Z,31.50
2018-07-17T06:24:03.498Z,31.60
2018-07-17T06:26:32.373Z,30.90
2018-07-17T06:29:01.082Z,31.10
2018-07-17T06:33:57.660Z,30.90
2018-07-17T06:36:26.176Z,31.30
2018-07-17T06:38:54.663Z,31.00
2018-07-17T06:41:23.250Z,30.50
2018-07-17T06:43:51.708Z,30.00
2018-07-17T06:46:20.417Z,29.50
2018-07-17T06:48:49.204Z,29.10
2018-07-17T06:51:17.773Z,28.80
2018-07-17T06:53:46.369Z,28.50
2018-07-17T06:56:15.104Z,27.80
2018-07-17T06:58:43.601Z,27.20
2018-07-17T07:01:12.450Z,27.30
2018-07-17T07:03:41.312Z,27.80
2018-07-17T07:06:10.652Z,28.60
2018-07-17T07:08:39.229Z,29.50
2018-07-17T07:11:07.693Z,30.40
2018-07-17T07:13:36.092Z,31.60
2018-07-17T07:16:04.851Z,32.70
2018-07-17T07:18:34.112Z,33.70
2018-07-17T07:21:03.145Z,34.50
2018-07-17T07:23:31.713Z,34.80
2018-07-17T07:26:00.323Z,35.20
2018-07-17T07:28:29.459Z,36.10
2018-07-17T07:30:58.080Z,35.80
2018-07-17T07:33:27.062Z,35.90
2018-07-17T07:35:55.820Z,36.10
2018-07-17T07:38:24.289Z,36.50
2018-07-17T07:43:21.013Z,37.00
2018-07-17T07:45:49.596Z,37.10
2018-07-17T07:48:19.549Z,37.30
2018-07-17T07:50:48.477Z,37.10
2018-07-17T07:53:16.990Z,37.40
2018-07-17T07:55:46.432Z,37.70
2018-07-17T07:58:14.924Z,37.70
2018-07-17T08:00:43.409Z,38.10
2018-07-17T08:03:11.921Z,38.30
2018-07-17T08:05:40.601Z,38.80
2018-07-17T08:08:09.216Z,38.80
2018-07-17T08:10:38.046Z,38.30
2018-07-17T08:13:13.389Z,38.10
2018-07-17T08:18:10.305Z,38.10
2018-07-17T08:20:39.794Z,37.10
2018-07-17T08:23:08.608Z,36.30
2018-07-17T08:25:37.610Z,36.20
2018-07-17T08:28:06.654Z,35.40
2018-07-17T08:30:35.624Z,33.80
2018-07-17T08:33:04.773Z,31.80
2018-07-17T08:35:33.513Z,30.70
2018-07-17T08:38:02.928Z,29.50
2018-07-17T08:40:31.685Z,28.60
2018-07-17T08:43:00.317Z,27.80
2018-07-17T08:45:29.450Z,27.10
2018-07-17T08:47:58.072Z,26.90
2018-07-17T08:50:26.622Z,26.80
2018-07-17T08:52:55.190Z,26.80
2018-07-17T08:55:24.337Z,27.10
2018-07-17T08:57:52.828Z,27.10
2018-07-17T09:00:21.513Z,27.40
2018-07-17T09:02:50.189Z,28.10
2018-07-17T09:05:19.277Z,27.70
2018-07-17T09:07:48.442Z,26.90
2018-07-17T09:10:17.125Z,26.40
2018-07-17T09:12:45.936Z,25.90
2018-07-17T09:15:14.543Z,25.90
2018-07-17T09:17:43.268Z,25.90
2018-07-17T09:20:12.041Z,25.80
2018-07-17T09:22:40.825Z,25.50
2018-07-17T09:25:09.875Z,25.50
2018-07-17T09:27:38.308Z,25.60
2018-07-17T09:30:07.825Z,25.90
2018-07-17T09:32:36.538Z,26.00
2018-07-17T09:35:05.422Z,26.20
2018-07-17T09:37:34.255Z,26.60
2018-07-17T09:40:02.965Z,26.80
2018-07-17T09:42:31.431Z,26.90
2018-07-17T09:45:00.160Z,26.90
2018-07-17T09:47:28.634Z,27.00
2018-07-17T09:49:57.265Z,26.70
2018-07-17T09:52:25.955Z,26.70
2018-07-17T09:54:55.596Z,26.30
2018-07-17T09:57:24.905Z,25.30
2018-07-17T09:59:53.982Z,24.00
2018-07-17T10:02:28.663Z,23.60
2018-07-17T10:04:58.133Z,22.90
2018-07-17T10:07:27.073Z,22.20
2018-07-17T10:09:55.703Z,21.00
2018-07-17T10:12:25.313Z,20.10
2018-07-17T10:14:53.894Z,19.70
2018-07-17T10:17:23.102Z,19.40
2018-07-17T10:19:52.053Z,18.90
2018-07-17T10:22:20.850Z,18.60
2018-07-17T10:24:49.905Z,18.30
2018-07-17T10:27:19.027Z,18.00
2018-07-17T10:29:47.717Z,18.20
2018-07-17T10:32:16.510Z,18.10
2018-07-17T10:34:44.923Z,18.10
2018-07-17T10:37:13.593Z,18.10
2018-07-17T10:39:42.584Z,18.00
2018-07-17T10:42:11.069Z,18.20
2018-07-17T10:44:39.510Z,18.80
2018-07-17T10:47:14.485Z,19.40
2018-07-17T10:49:43.020Z,19.60
2018-07-17T10:52:11.502Z,20.00
2018-07-17T10:54:40.422Z,20.60
2018-07-17T10:57:09.081Z,20.30
2018-07-17T10:59:37.709Z,20.00
2018-07-17T11:02:06.318Z,19.60
2018-07-17T11:04:34.752Z,19.80
2018-07-17T11:07:03.220Z,20.00
2018-07-17T11:09:31.781Z,19.70
2018-07-17T11:12:00.487Z,19.90
2018-07-17T11:16:57.047Z,20.60
2018-07-17T11:19:26.058Z,21.20
2018-07-17T11:21:54.676Z,21.90
2018-07-17T11:24:23.462Z,22.40
2018-07-17T11:26:52.379Z,23.10
2018-07-17T11:29:20.961Z,24.00
2018-07-17T11:31:50.021Z,24.90
2018-07-17T11:34:18.759Z,25.60
2018-07-17T11:36:47.421Z,25.80
2018-07-17T11:39:15.844Z,26.20
2018-07-17T11:41:44.289Z,25.70
2018-07-17T11:44:13.124Z,25.50
2018-07-17T11:46:41.604Z,25.60
2018-07-17T11:49:10.126Z,25.80
2018-07-17T11:54:07.297Z,26.00
2018-07-17T11:56:35.912Z,26.10
2018-07-17T11:59:05.295Z,26.30
2018-07-17T12:01:34.088Z,26.40
2018-07-17T12:04:03.191Z,26.10
2018-07-17T12:06:32.123Z,26.10
2018-07-17T12:09:01.171Z,25.90
2018-07-17T12:11:29.776Z,26.10
2018-07-17T12:13:58.589Z,26.00
2018-07-17T12:16:28.141Z,26.00
2018-07-17T12:18:57.242Z,25.70
2018-07-17T12:21:25.771Z,25.50
2018-07-17T12:23:54.497Z,25.60
2018-07-17T12:26:22.957Z,25.80
2018-07-17T12:28:51.736Z,26.00
2018-07-17T12:31:20.184Z,25.60
2018-07-17T12:33:48.765Z,25.60
2018-07-17T12:36:18.105Z,24.90
2018-07-17T12:38:46.548Z,25.20
2018-07-17T12:41:15.485Z,25.70
2018-07-17T12:43:44.413Z,25.00
2018-07-17T12:46:13.445Z,25.00
2018-07-17T12:48:42.844Z,23.60
2018-07-17T12:51:11.653Z,23.90
2018-07-17T12:53:40.145Z,24.70
2018-07-17T12:56:08.732Z,25.50
2018-07-17T12:58:37.198Z,25.80
2018-07-17T13:01:05.950Z,25.50
2018-07-17T13:03:34.619Z,25.50
2018-07-17T13:06:03.102Z,25.70
2018-07-17T13:08:31.556Z,25.70
2018-07-17T13:11:00.045Z,25.40
2018-07-17T13:13:28.461Z,25.60
2018-07-17T13:15:57.349Z,25.50
2018-07-17T13:18:25.799Z,25.70
2018-07-17T13:20:54.258Z,26.00
2018-07-17T13:23:22.679Z,26.00
2018-07-17T13:25:51.141Z,26.30
2018-07-17T13:28:19.539Z,26.00
2018-07-17T13:30:47.989Z,26.30
2018-07-17T13:33:16.428Z,26.40
2018-07-17T13:35:44.873Z,26.20
2018-07-17T13:38:13.349Z,26.20
2018-07-17T13:40:41.797Z,26.50
2018-07-17T13:43:10.232Z,26.70
2018-07-17T13:45:38.720Z,27.20
2018-07-17T13:48:07.188Z,27.40
2018-07-17T13:53:03.752Z,27.10
2018-07-17T13:55:32.201Z,26.70
2018-07-17T13:58:00.626Z,26.90
2018-07-17T14:00:29.060Z,26.90
2018-07-17T14:02:57.750Z,26.80
2018-07-17T14:05:26.218Z,26.60
2018-07-17T14:07:54.637Z,27.20
2018-07-17T14:10:23.083Z,27.00
2018-07-17T14:12:51.709Z,27.30
2018-07-17T14:15:20.133Z,27.70
2018-07-17T14:17:48.557Z,27.80
2018-07-17T14:20:16.984Z,27.90
2018-07-17T14:22:45.576Z,27.80
2018-07-17T14:25:14.082Z,27.50
2018-07-17T14:27:42.560Z,27.30
2018-07-17T14:30:11.062Z,27.10
2018-07-17T14:32:39.486Z,26.90
2018-07-17T14:37:36.128Z,27.10
2018-07-17T14:40:04.986Z,27.10
2018-07-17T14:42:33.635Z,27.10
2018-07-17T14:45:02.703Z,27.00
2018-07-17T14:47:31.276Z,26.80
2018-07-17T14:49:59.859Z,26.80
2018-07-17T14:52:28.446Z,26.60
2018-07-17T14:54:57.175Z,26.60
2018-07-17T14:57:25.701Z,26.60
2018-07-17T14:59:54.288Z,26.80
2018-07-17T15:02:22.807Z,26.80
2018-07-17T15:04:51.363Z,27.10
2018-07-17T15:07:19.907Z,27.20
2018-07-17T15:09:48.314Z,27.00
2018-07-17T15:12:16.991Z,27.00
2018-07-17T15:14:45.467Z,27.00
2018-07-17T15:17:13.903Z,27.00
2018-07-17T15:19:42.360Z,27.30
2018-07-17T15:22:10.933Z,27.30
2018-07-17T15:24:39.377Z,27.40
2018-07-17T15:27:08.105Z,27.40
2018-07-17T15:29:36.562Z,27.50
2018-07-17T15:32:05.273Z,27.60
2018-07-17T15:34:33.726Z,27.70
2018-07-17T15:37:02.347Z,27.70
2018-07-17T15:39:30.925Z,27.70
2018-07-17T15:41:59.605Z,27.70
2018-07-17T15:44:28.093Z,27.80
2018-07-17T15:46:56.656Z,27.90
2018-07-17T15:49:25.450Z,27.90
2018-07-17T15:51:53.980Z,28.40
2018-07-17T15:54:22.413Z,28.40
2018-07-17T15:56:50.921Z,28.60
2018-07-17T15:59:19.380Z,28.70
2018-07-17T16:01:47.928Z,28.80
2018-07-17T16:04:16.460Z,29.00
2018-07-17T16:06:44.979Z,29.60
2018-07-17T16:09:13.765Z,29.40
2018-07-17T16:11:42.669Z,29.70
2018-07-17T16:14:11.655Z,29.80
2018-07-17T16:16:39.937Z,30.00
2018-07-17T16:19:08.435Z,30.40
2018-07-17T16:21:37.015Z,31.20
2018-07-17T16:24:05.639Z,31.00
2018-07-17T16:26:34.360Z,31.30
2018-07-17T16:29:03.166Z,31.70
2018-07-17T16:31:31.644Z,32.20
2018-07-17T16:34:00.270Z,32.50
2018-07-17T16:36:28.791Z,32.80
2018-07-17T16:38:57.246Z,32.80
2018-07-17T16:41:25.941Z,33.00
2018-07-17T16:43:54.793Z,32.90
2018-07-17T16:46:23.453Z,32.00
2018-07-17T16:48:52.240Z,31.90
2018-07-17T16:51:21.388Z,31.70
2018-07-17T16:53:50.500Z,31.60
2018-07-17T16:56:19.894Z,31.90
2018-07-17T16:58:48.908Z,32.10
2018-07-17T17:01:17.797Z,32.10
2018-07-17T17:03:46.542Z,32.60
2018-07-17T17:06:14.990Z,31.90
2018-07-17T17:08:43.455Z,32.00
2018-07-17T17:13:40.419Z,32.70
2018-07-17T17:16:08.997Z,33.20
2018-07-17T17:18:37.824Z,33.60
2018-07-17T17:21:06.505Z,33.80
2018-07-17T17:23:35.038Z,34.00
2018-07-17T17:26:04.345Z,34.30
2018-07-17T17:31:01.397Z,35.20
2018-07-17T17:33:30.022Z,36.00
2018-07-17T17:35:58.785Z,36.40
2018-07-17T17:38:27.324Z,36.30
2018-07-17T17:40:55.834Z,36.20
2018-07-17T17:43:24.388Z,36.00
2018-07-17T17:45:52.847Z,35.80
2018-07-17T17:48:21.450Z,35.60
2018-07-17T17:50:49.979Z,35.70
2018-07-17T17:53:18.434Z,35.90
2018-07-17T17:55:46.905Z,35.80
2018-07-17T17:58:15.509Z,36.00
2018-07-17T18:00:44.018Z,35.80
2018-07-17T18:03:12.700Z,35.60
2018-07-17T18:05:41.177Z,35.80
2018-07-17T18:08:09.680Z,35.90
2018-07-17T18:10:38.289Z,36.10
2018-07-17T18:13:06.961Z,38.70
2018-07-17T18:15:35.507Z,40.50
2018-07-17T18:18:04.258Z,40.90
2018-07-17T18:20:32.840Z,41.70
2018-07-17T18:25:29.631Z,43.50
2018-07-17T18:27:58.236Z,44.20
2018-07-17T18:30:27.064Z,45.10
2018-07-17T18:32:55.629Z,45.60
2018-07-17T18:35:24.150Z,46.30
2018-07-17T18:37:52.697Z,46.80
2018-07-17T18:40:21.286Z,47.50
2018-07-17T18:42:49.751Z,48.50
2018-07-17T18:45:18.406Z,48.30
2018-07-17T18:47:46.959Z,48.50
2018-07-17T18:50:15.380Z,48.90
2018-07-17T18:52:43.968Z,49.10
2018-07-17T18:55:12.637Z,49.70
2018-07-17T18:57:41.300Z,50.40
2018-07-17T19:00:09.847Z,50.40
2018-07-17T19:02:38.297Z,50.60
2018-07-17T19:05:06.862Z,51.20
2018-07-17T19:07:35.361Z,51.30
2018-07-17T19:10:03.913Z,50.90
2018-07-17T19:12:32.573Z,48.60
2018-07-17T19:15:01.054Z,47.00
2018-07-17T19:17:29.607Z,46.70
2018-07-17T19:19:58.062Z,46.60
2018-07-17T19:22:26.601Z,47.30
2018-07-17T19:24:55.201Z,46.70
2018-07-17T19:27:24.030Z,47.10
2018-07-17T19:29:52.509Z,46.70
2018-07-17T19:32:21.095Z,46.80
2018-07-17T19:34:49.796Z,46.80
2018-07-17T19:37:18.429Z,46.10
2018-07-17T19:39:46.920Z,45.90
2018-07-17T19:42:15.479Z,45.70
2018-07-17T19:44:44.032Z,45.70
2018-07-17T19:47:12.615Z,45.90
2018-07-17T19:49:41.104Z,46.10
2018-07-17T19:52:09.710Z,46.10
2018-07-17T19:54:38.266Z,46.20
2018-07-17T19:57:06.823Z,46.50
2018-07-17T19:59:35.738Z,46.50
2018-07-17T20:02:04.221Z,46.60
2018-07-17T20:04:33.513Z,46.80
2018-07-17T20:07:02.028Z,46.90
2018-07-17T20:09:30.630Z,46.90
2018-07-17T20:11:59.190Z,47.20
2018-07-17T20:14:27.724Z,47.40
2018-07-17T20:16:56.198Z,47.60
2018-07-17T20:19:24.810Z,47.90
2018-07-17T20:21:53.384Z,48.00
2018-07-17T20:24:21.971Z,47.90
2018-07-17T20:26:50.494Z,47.80
2018-07-17T20:29:19.046Z,47.90
2018-07-17T20:31:47.841Z,48.80
2018-07-17T20:34:16.314Z,48.40
2018-07-17T20:36:45.102Z,48.40
2018-07-17T20:39:13.605Z,47.80
2018-07-17T20:41:42.708Z,47.60
2018-07-17T20:44:11.308Z,47.30
2018-07-17T20:46:40.032Z,47.40
2018-07-17T20:49:08.575Z,47.10
2018-07-17T20:51:37.108Z,47.30
2018-07-17T20:54:05.877Z,47.30
2018-07-17T20:56:34.361Z,47.30
2018-07-17T20:59:02.928Z,47.40
2018-07-17T21:01:31.428Z,47.50
2018-07-17T21:03:59.952Z,47.40
2018-07-17T21:06:28.473Z,47.30
2018-07-17T21:08:57.058Z,46.90
2018-07-17T21:11:25.784Z,47.00
2018-07-17T21:13:54.277Z,46.80
2018-07-17T21:16:22.969Z,47.00
2018-07-17T21:18:51.499Z,47.40
2018-07-17T21:21:20.093Z,47.10
2018-07-17T21:23:48.905Z,46.90
2018-07-17T21:26:17.787Z,46.60
2018-07-17T21:28:46.433Z,46.60
2018-07-17T21:31:15.088Z,46.90
2018-07-17T21:33:43.608Z,47.00
2018-07-17T21:36:12.193Z,47.50
2018-07-17T21:38:40.821Z,47.70
2018-07-17T21:41:09.354Z,47.70
2018-07-17T21:43:37.804Z,48.00
2018-07-17T21:46:06.505Z,48.40
2018-07-17T21:48:35.113Z,48.50
2018-07-17T21:51:03.591Z,48.70
2018-07-17T21:53:32.432Z,49.30
2018-07-17T21:56:01.096Z,49.40
2018-07-17T21:58:29.500Z,49.50
2018-07-17T22:00:58.555Z,49.70
2018-07-17T22:03:27.012Z,50.00
2018-07-17T22:05:55.577Z,50.30
2018-07-17T22:08:24.051Z,50.50
2018-07-17T22:10:52.622Z,50.70
2018-07-17T22:13:21.062Z,50.50
2018-07-17T22:15:49.518Z,50.60
2018-07-17T22:18:17.955Z,50.60
2018-07-17T22:20:46.474Z,50.80
2018-07-17T22:23:14.904Z,51.10
2018-07-17T22:25:43.381Z,51.30
2018-07-17T22:28:11.845Z,51.50
2018-07-17T22:30:40.281Z,51.90
2018-07-17T22:33:08.814Z,52.00
2018-07-17T22:35:37.558Z,52.30
2018-07-17T22:38:06.059Z,52.30
2018-07-17T22:40:34.513Z,52.60
2018-07-17T22:43:03.036Z,52.60
2018-07-17T22:45:31.448Z,53.40
2018-07-17T22:47:59.967Z,53.00
2018-07-17T22:50:28.570Z,53.30
2018-07-17T22:52:57.319Z,53.50
2018-07-17T22:55:25.977Z,53.90
2018-07-17T22:57:54.434Z,54.50
2018-07-17T23:00:23.044Z,54.30
2018-07-17T23:02:51.560Z,54.70
2018-07-17T23:05:20.032Z,54.90
2018-07-17T23:07:48.517Z,55.10
2018-07-17T23:10:17.000Z,55.30
2018-07-17T23:12:45.609Z,55.60
2018-07-17T23:15:14.240Z,55.80
2018-07-17T23:17:42.777Z,56.00
2018-07-17T23:20:11.382Z,56.00
2018-07-17T23:35:53.625Z,56.30
2018-07-17T23:38:22.115Z,57.10
2018-07-17T23:40:50.554Z,58.70
2018-07-17T23:43:19.274Z,58.60
2018-07-17T23:45:47.713Z,58.70
2018-07-17T23:48:16.140Z,58.70
2018-07-17T23:50:44.577Z,59.10
2018-07-17T23:53:13.024Z,59.30
2018-07-17T23:55:41.777Z,59.30
2018-07-17T23:58:10.277Z,59.30
